Time;durP1;ratioP1;P1;durP2;ratioP2;P2;SDS_P1;SDS_P2;PMS_P1;PMS_P2;Temp;Humidity;BMP_temperature;BMP_pressure;BME280_temperature;BME280_humidity;BME280_pressure;Samples;Min_cycle;Max_cycle;Signal;HPM_P1;HPM_P2
2020/12/13 00:02:25;;;;;;;;;;;4.80;99.90;;;3.60;91.37;94687.03;10398373;28;2303;-82
2020/12/13 00:07:28;;;;;;;;;;;7.20;99.90;;;3.53;91.82;94687.25;10405613;28;2323;-82
2020/12/13 00:12:30;;;;;;;;;;;4.80;99.90;;;3.52;91.09;94696.28;10397009;28;2343;-82
2020/12/13 00:17:32;;;;;;;;;;;4.60;99.90;;;3.52;91.75;94706.94;10393291;28;2334;-84
2020/12/13 00:22:34;;;;;;;;;;;4.60;99.90;;;3.48;91.60;94705.81;10387333;28;2715;-80
2020/12/13 00:27:36;;;;;;;;;;;4.50;99.90;;;3.53;92.28;94708.53;10394111;28;2343;-83
2020/12/13 00:32:38;;;;;;;;;;;6.00;99.90;;;3.53;92.38;94717.28;10392121;28;2306;-82
2020/12/13 00:37:39;;;;;;;;;;;4.50;99.90;;;3.53;91.45;94719.16;10400955;28;2247;-80
2020/12/13 00:42:41;;;;;;;;;;;4.60;99.90;;;3.53;90.82;94714.63;10402842;28;2295;-82
2020/12/13 00:47:43;;;;;;;;;;;6.00;99.90;;;3.54;90.85;94726.06;10386651;28;2415;-82
2020/12/13 00:52:45;;;;;;;;;;;5.70;99.90;;;3.50;91.01;94727.66;10393479;28;2248;-83
2020/12/13 00:57:50;;;;;;;;;;;4.60;99.90;;;3.52;91.09;94746.78;10392015;28;2303;-83
2020/12/13 01:02:52;;;;;;;;;;;6.00;99.90;;;3.54;91.17;94749.97;10397272;28;1908;-82
2020/12/13 01:07:54;;;;;;;;;;;4.90;99.90;;;3.48;90.56;94753.66;10394898;28;2257;-81
2020/12/13 01:12:56;;;;;;;;;;;4.70;99.90;;;3.52;91.48;94760.06;10390756;28;1722;-82
2020/12/13 01:17:57;;;;;;;;;;;4.60;99.90;;;3.41;91.58;94767.16;10386384;28;2369;-82
2020/12/13 01:22:59;;;;;;;;;;;4.90;99.90;;;3.43;92.59;94773.00;10385719;28;2272;-83
2020/12/13 01:28:01;;;;;;;;;;;5.40;99.90;;;3.39;92.98;94776.44;10394153;28;2692;-82
2020/12/13 01:33:03;;;;;;;;;;;5.50;99.90;;;3.38;94.11;94782.81;10404178;28;2200;-81
2020/12/13 01:38:05;;;;;;;;;;;5.00;99.90;;;3.36;94.31;94782.22;10409221;28;2455;-81
2020/12/13 01:43:06;;;;;;;;;;;4.40;99.90;;;3.40;94.84;94788.66;10414929;28;2443;-79
2020/12/13 01:48:08;;;;;;;;;;;4.40;99.90;;;3.40;94.76;94784.13;10388819;28;2179;-81
2020/12/13 01:53:14;;;;;;;;;;;4.50;99.90;;;3.45;94.47;94791.38;10380456;28;2192;-81
2020/12/13 01:58:16;;;;;;;;;;;4.50;99.90;;;3.43;94.28;94798.75;10382728;28;2102;-81
2020/12/13 02:03:19;;;;;;;;;;;4.50;99.90;;;3.50;94.04;94804.69;10400388;28;2347;-80
2020/12/13 02:08:20;;;;;;;;;;;4.50;99.90;;;3.47;94.09;94810.50;10405818;28;2470;-80
2020/12/13 02:13:22;;;;;;;;;;;4.50;99.90;;;3.48;93.63;94806.78;10415457;28;2813;-82
2020/12/13 02:18:24;;;;;;;;;;;4.50;99.90;;;3.45;93.74;94808.09;10381369;28;2424;-83
2020/12/13 02:23:26;;;;;;;;;;;6.40;99.90;;;3.43;94.13;94812.84;10376461;28;2423;-83
2020/12/13 02:28:28;;;;;;;;;;;4.50;99.90;;;3.47;93.48;94815.81;10381955;28;2586;-83
2020/12/13 02:33:30;;;;;;;;;;;4.50;99.90;;;3.47;93.75;94816.63;10393181;28;1890;-82
2020/12/13 02:38:32;;;;;;;;;;;4.60;99.90;;;3.46;93.98;94827.50;10418679;28;2461;-82
2020/12/13 02:43:34;;;;;;;;;;;5.00;99.90;;;3.49;93.97;94830.44;10414253;28;2331;-82
2020/12/13 02:48:36;;;;;;;;;;;4.60;99.90;;;3.46;93.93;94840.78;10387918;28;2678;-83
2020/12/13 02:53:37;;;;;;;;;;;5.40;99.90;;;3.44;93.98;94842.91;10393516;28;2415;-83
2020/12/13 02:58:39;;;;;;;;;;;4.60;99.90;;;3.48;94.26;94846.63;10385384;28;2400;-83
2020/12/13 03:03:41;;;;;;;;;;;4.60;99.90;;;3.51;94.34;94851.47;10379032;28;2455;-83
2020/12/13 03:08:43;;;;;;;;;;;4.60;99.90;;;3.52;94.54;94851.22;10378449;28;2028;-83
2020/12/13 03:13:45;;;;;;;;;;;5.20;99.90;;;3.56;94.21;94856.00;10386242;28;2285;-83
2020/12/13 03:18:46;;;;;;;;;;;4.60;99.90;;;3.53;94.12;94860.78;10393920;28;2809;-84
2020/12/13 03:23:48;;;;;;;;;;;4.60;99.90;;;3.56;94.11;94856.81;10383624;28;2514;-83
2020/12/13 03:28:51;;;;;;;;;;;4.70;99.90;;;3.61;94.08;94861.38;10383199;28;2416;-82
2020/12/13 03:33:53;;;;;;;;;;;4.70;99.90;;;3.57;93.80;94866.41;10383099;28;2505;-82
2020/12/13 03:38:55;;;;;;;;;;;4.70;99.90;;;3.62;93.73;94871.75;10381081;28;2370;-82
2020/12/13 03:43:56;;;;;;;;;;;5.60;99.90;;;3.66;93.81;94878.16;10384908;28;2557;-81
2020/12/13 03:48:58;;;;;;;;;;;4.70;99.90;;;3.62;93.43;94882.38;10394129;28;2177;-83
2020/12/13 03:54:00;;;;;;;;;;;4.80;99.90;;;3.65;93.40;94883.75;10375042;28;2450;-83
2020/12/13 03:59:02;;;;;;;;;;;4.70;99.90;;;3.64;93.58;94884.81;10402870;28;2832;-81
2020/12/13 04:04:04;;;;;;;;;;;5.80;99.90;;;3.64;94.10;94885.59;10396744;28;2431;-83
2020/12/13 04:09:06;;;;;;;;;;;4.70;99.90;;;3.65;94.18;94887.19;10396640;28;2538;-81
2020/12/13 04:14:07;;;;;;;;;;;5.80;99.90;;;3.62;94.42;94893.00;10400089;28;2419;-81
2020/12/13 04:19:10;;;;;;;;;;;6.50;99.90;;;3.61;94.54;94899.38;10391504;28;2452;-84
2020/12/13 04:24:12;;;;;;;;;;;6.50;99.90;;;3.67;94.71;94905.53;10389362;28;2434;-83
2020/12/13 04:29:13;;;;;;;;;;;4.80;99.90;;;3.72;94.72;94914.38;10375697;28;2518;-83
2020/12/13 04:34:15;;;;;;;;;;;4.80;99.90;;;3.75;94.93;94915.72;10379893;28;2714;-83
2020/12/13 04:39:17;;;;;;;;;;;4.80;99.90;;;3.79;94.88;94914.97;10392760;28;2533;-84
2020/12/13 04:44:18;;;;;;;;;;;5.40;99.90;;;3.79;94.32;94930.91;10388186;28;2363;-84
2020/12/13 04:49:21;;;;;;;;;;;4.90;99.90;;;3.83;94.02;94933.09;10388348;28;2418;-83
2020/12/13 04:54:23;;;;;;;;;;;4.90;99.90;;;3.83;93.91;94939.22;10396448;28;2466;-83
2020/12/13 04:59:25;;;;;;;;;;;4.90;99.90;;;3.83;93.74;94946.38;10388631;28;2407;-83
2020/12/13 05:04:27;;;;;;;;;;;5.70;99.90;;;3.76;94.10;94947.38;10387034;28;2444;-81
2020/12/13 05:09:29;;;;;;;;;;;5.50;99.90;;;3.75;94.06;94951.09;10385119;28;2681;-83
2020/12/13 05:14:30;;;;;;;;;;;4.90;99.90;;;3.83;94.18;94957.03;10385933;28;2116;-82
2020/12/13 05:19:32;;;;;;;;;;;4.90;99.90;;;3.80;94.25;94964.41;10372313;28;2466;-82
2020/12/13 05:24:34;;;;;;;;;;;5.90;99.90;;;3.81;94.33;94973.19;10394941;28;2577;-79
2020/12/13 05:29:38;;;;;;;;;;;4.90;99.90;;;3.82;94.40;94976.66;10388761;28;2337;-81
2020/12/13 05:34:40;;;;;;;;;;;4.90;99.90;;;3.83;94.81;94979.09;10378639;28;2418;-81
2020/12/13 05:39:44;;;;;;;;;;;5.90;99.90;;;3.78;95.05;94987.00;10375025;28;2405;-81
2020/12/13 05:50:28;;;;;;;;;;;5.50;99.90;;;3.77;95.33;95006.66;10372226;28;2446;-83
2020/12/13 05:55:30;;;;;;;;;;;4.90;99.90;;;3.83;94.94;95016.31;10377888;28;2474;-84
2020/12/13 06:00:31;;;;;;;;;;;5.80;99.90;;;3.84;95.31;95017.09;10385957;28;2455;-83
2020/12/13 06:05:33;;;;;;;;;;;6.40;99.90;;;3.85;94.92;95019.50;10392292;28;2375;-82
2020/12/13 06:10:35;;;;;;;;;;;4.90;99.90;;;3.86;95.35;95025.63;10388013;28;1905;-82
2020/12/13 06:15:36;;;;;;;;;;;5.90;99.90;;;3.89;95.50;95030.47;10382985;28;2526;-80
2020/12/13 06:20:38;;;;;;;;;;;4.90;99.90;;;3.90;95.36;95032.06;10390467;28;2305;-83
2020/12/13 06:25:40;;;;;;;;;;;5.00;99.90;;;3.90;94.91;95032.06;10395709;28;2017;-83
2020/12/13 06:30:41;;;;;;;;;;;5.40;99.90;;;3.93;95.71;95042.19;10391799;28;2522;-83
2020/12/13 06:35:43;;;;;;;;;;;5.00;99.90;;;3.91;96.00;95053.06;10396231;28;2518;-83
2020/12/13 06:40:45;;;;;;;;;;;5.50;99.90;;;3.84;95.89;95054.31;10386361;28;2328;-83
2020/12/13 06:45:46;;;;;;;;;;;6.50;99.90;;;3.90;95.66;95059.44;10409224;28;2471;-83
2020/12/13 06:50:48;;;;;;;;;;;5.70;99.90;;;3.86;96.01;95065.50;10424642;28;2602;-82
2020/12/13 06:55:50;;;;;;;;;;;5.00;99.90;;;3.92;95.78;95075.94;10426302;28;2356;-83
2020/12/13 07:00:52;;;;;;;;;;;5.00;99.90;;;3.94;95.95;95076.50;10398894;28;2419;-84
2020/12/13 07:05:56;;;;;;;;;;;5.00;99.90;;;3.96;95.79;95077.06;10393261;28;2380;-83
2020/12/13 07:10:58;;;;;;;;;;;5.10;99.90;;;3.98;95.51;95092.78;10392985;28;1964;-83
2020/12/13 07:16:04;;;;;;;;;;;5.60;99.90;;;4.01;95.10;95100.28;10390395;28;2116;-83
2020/12/13 07:21:06;;;;;;;;;;;5.10;99.90;;;4.01;95.68;95108.25;10420747;28;2461;-82
2020/12/13 07:26:08;;;;;;;;;;;6.70;99.90;;;4.09;95.68;95110.47;10428662;28;2451;-82
2020/12/13 07:31:10;;;;;;;;;;;6.00;99.90;;;4.06;95.58;95110.94;10424518;28;1759;-81
2020/12/13 07:36:12;;;;;;;;;;;5.20;99.90;;;4.09;95.01;95115.78;10398171;28;2467;-83
2020/12/13 07:41:14;;;;;;;;;;;6.80;99.90;;;4.16;95.54;95127.03;10395991;28;2355;-83
2020/12/13 07:46:16;;;;;;;;;;;7.00;99.90;;;4.16;95.34;95129.69;10397718;28;2378;-82
2020/12/13 07:51:18;;;;;;;;;;;6.40;99.90;;;4.23;95.21;95137.47;10400888;28;2332;-81
2020/12/13 07:56:20;;;;;;;;;;;5.30;99.90;;;4.23;95.04;95137.47;10410008;28;2447;-82
2020/12/13 08:01:21;;;;;;;;;;;5.50;99.90;;;4.20;94.88;95146.78;10395508;28;2483;-80
2020/12/13 08:06:23;;;;;;;;;;;6.60;99.90;;;4.28;95.26;95148.19;10388756;28;2514;-81
2020/12/13 08:11:25;;;;;;;;;;;5.70;99.90;;;4.33;95.25;95154.38;10396925;28;2442;-82
2020/12/13 08:16:26;;;;;;;;;;;5.70;99.90;;;4.30;94.93;95160.16;10393646;28;2525;-83
2020/12/13 08:21:28;;;;;;;;;;;5.80;99.90;;;4.38;95.00;95166.91;10391497;28;2412;-82
2020/12/13 08:26:30;;;;;;;;;;;5.90;99.90;;;4.41;94.66;95169.06;10370678;28;3075;-84
2020/12/13 08:31:31;;;;;;;;;;;6.60;99.90;;;4.50;94.33;95174.75;10390422;28;2613;-82
2020/12/13 08:36:33;;;;;;;;;;;5.50;99.90;;;4.47;94.41;95184.06;10391702;28;2447;-83
2020/12/13 08:41:35;;;;;;;;;;;5.50;99.90;;;4.50;94.42;95190.72;10395937;28;2489;-80
2020/12/13 08:46:38;;;;;;;;;;;5.60;99.90;;;4.57;94.06;95201.97;10394377;28;2451;-82
2020/12/13 08:51:39;;;;;;;;;;;5.60;99.90;;;4.52;94.08;95193.97;10400584;28;2418;-81
2020/12/13 08:56:42;;;;;;;;;;;5.60;99.90;;;4.57;94.26;95213.44;10395142;28;2424;-82
2020/12/13 09:01:45;;;;;;;;;;;6.90;99.90;;;4.61;94.48;95213.75;10397898;28;2447;-82
2020/12/13 09:06:47;;;;;;;;;;;5.70;99.90;;;4.66;94.72;95223.66;10398707;28;2443;-82
2020/12/13 09:11:48;;;;;;;;;;;5.70;99.90;;;4.68;93.90;95230.31;10420454;28;2458;-79
2020/12/13 09:16:50;;;;;;;;;;;5.70;99.90;;;4.67;93.28;95239.38;10422611;28;2403;-81
2020/12/13 09:21:52;;;;;;;;;;;6.80;99.90;;;4.86;93.48;95242.50;10418498;28;2434;-81
2020/12/13 09:26:54;;;;;;;;;;;6.30;99.90;;;4.91;92.68;95244.44;10428332;28;2403;-82
2020/12/13 09:31:55;;;;;;;;;;;6.80;99.90;;;4.82;92.04;95262.69;10411844;28;2302;-83
2020/12/13 09:36:57;;;;;;;;;;;6.50;99.90;;;4.73;91.80;95258.88;10395099;28;2164;-83
2020/12/13 09:42:03;;;;;;;;;;;5.80;99.90;;;4.66;92.00;95258.25;10392629;28;2515;-83
2020/12/13 09:47:05;;;;;;;;;;;5.70;99.90;;;4.61;92.30;95261.66;10385227;28;2443;-81
2020/12/13 09:52:07;;;;;;;;;;;5.70;99.90;;;4.54;92.86;95271.69;10389570;28;1356;-83
2020/12/13 09:57:09;;;;;;;;;;;5.70;99.90;;;4.60;93.60;95270.72;10396831;28;1598;-80
2020/12/13 10:02:11;;;;;;;;;;;6.60;99.90;;;4.63;93.17;95280.03;10386295;28;1910;-83
2020/12/13 10:07:33;;;;;;;;;;;7.00;99.90;;;4.79;93.36;95282.66;10396617;28;1207;-81
2020/12/13 10:12:35;;;;;;;;;;;5.80;99.90;;;4.72;93.17;95278.56;10406057;28;2448;-82
2020/12/13 10:17:36;;;;;;;;;;;6.70;99.90;;;4.71;92.43;95282.25;10406982;28;1174;-82
2020/12/13 10:22:38;;;;;;;;;;;7.20;99.90;;;4.72;92.23;95278.56;10403472;28;1879;-81
2020/12/13 10:27:40;;;;;;;;;;;5.90;99.90;;;4.76;92.20;95284.97;10400876;28;1432;-80
2020/12/13 10:32:41;;;;;;;;;;;7.00;99.90;;;4.93;91.92;95282.25;10398078;28;2140;-79
2020/12/13 10:37:43;;;;;;;;;;;6.70;99.90;;;5.04;90.88;95281.31;10379548;28;1625;-83
2020/12/13 10:42:45;;;;;;;;;;;6.10;99.90;;;5.08;90.24;95274.41;10367095;28;2727;-83
2020/12/13 10:47:47;;;;;;;;;;;6.20;99.90;;;5.17;90.16;95275.59;10381252;28;1929;-83
2020/12/13 10:52:48;;;;;;;;;;;6.20;99.90;;;5.29;90.34;95278.91;10385597;28;1772;-83
2020/12/13 10:57:51;;;;;;;;;;;6.30;99.90;;;5.29;89.45;95278.91;10389911;28;1690;-84
2020/12/13 11:02:53;;;;;;;;;;;6.40;99.90;;;5.40;89.82;95280.59;10394343;28;1910;-84
2020/12/13 11:07:55;;;;;;;;;;;6.40;99.90;;;5.29;89.23;95270.91;10392727;28;1981;-83
2020/12/13 11:12:57;;;;;;;;;;;7.60;99.90;;;5.34;89.54;95281.63;10398844;28;1710;-82
2020/12/13 11:17:59;;;;;;;;;;;6.50;99.90;;;5.23;89.15;95274.59;10390838;28;1632;-83
2020/12/13 11:23:02;;;;;;;;;;;6.40;99.90;;;5.35;89.63;95272.56;10400688;28;1917;-84
2020/12/13 11:28:18;;;;;;;;;;;7.80;99.90;;;5.49;88.86;95274.81;10394235;28;1563;-82
2020/12/13 11:33:20;;;;;;;;;;;7.10;99.90;;;5.42;89.51;95277.69;10410921;28;1267;-84
2020/12/13 11:38:22;;;;;;;;;;;7.00;99.90;;;5.31;90.35;95275.97;10391926;28;1621;-83
2020/12/13 11:43:23;;;;;;;;;;;6.50;99.90;;;5.27;91.02;95286.34;10395553;28;1883;-82
2020/12/13 11:48:25;;;;;;;;;;;7.40;99.90;;;5.24;92.10;95283.38;10395927;28;1841;-85
2020/12/13 11:53:27;;;;;;;;;;;6.40;99.90;;;5.16;92.27;95284.66;10386439;28;1999;-82
2020/12/13 11:58:29;;;;;;;;;;;6.40;99.90;;;5.09;92.67;95289.34;10391334;28;2045;-83
2020/12/13 12:03:39;;;;;;;;;;;6.30;99.90;;;5.00;91.71;95294.31;10382857;28;1972;-83
2020/12/13 12:08:41;;;;;;;;;;;6.60;99.90;;;5.06;92.11;95295.19;10386213;28;2061;-79
2020/12/13 12:13:46;;;;;;;;;;;7.60;99.90;;;5.11;91.71;95296.03;10397910;28;1829;-83
2020/12/13 12:18:47;;;;;;;;;;;6.40;99.90;;;5.03;91.59;95295.69;10404438;28;2408;-84
2020/12/13 12:23:49;;;;;;;;;;;6.20;99.90;;;5.00;91.49;95293.50;10394318;28;1972;-82
2020/12/13 12:28:51;;;;;;;;;;;7.00;99.90;;;4.96;91.83;95300.38;10392816;28;1433;-85
2020/12/13 12:33:55;;;;;;;;;;;6.10;99.90;;;5.05;91.80;95299.72;10402136;28;1710;-84
2020/12/13 12:39:06;;;;;;;;;;;6.10;99.90;;;5.11;91.55;95296.03;10406156;28;1705;-84
2020/12/13 12:44:22;;;;;;;;;;;6.00;99.90;;;4.97;92.00;95292.16;10410041;28;1996;-83
2020/12/13 12:49:24;;;;;;;;;;;7.60;99.90;;;4.98;92.23;95301.75;10400198;28;2092;-83
2020/12/13 12:54:42;;;;;;;;;;;6.00;99.90;;;4.87;92.79;95308.81;10417151;28;1742;-82
2020/12/13 13:05:46;;;;;;;;;;;6.00;99.90;;;4.87;93.01;95319.47;10361143;28;1875;-84
2020/12/13 13:10:53;;;;;;;;;;;5.90;99.90;;;4.86;92.38;95327.72;10407604;28;1773;-84
2020/12/13 13:16:29;;;;;;;;;;;7.30;99.90;;;4.84;92.05;95324.50;10284909;28;1748;-85
2020/12/13 13:21:36;;;;;;;;;;;5.90;99.90;;;4.76;92.04;95330.25;10271799;28;2117;-83
2020/12/13 13:26:40;;;;;;;;;;;6.90;99.90;;;4.71;91.99;95333.69;10278251;28;2060;-84
2020/12/13 13:31:53;;;;;;;;;;;5.80;99.90;;;4.69;91.73;95338.44;10310200;28;1974;-84
2020/12/13 13:37:03;;;;;;;;;;;5.80;99.90;;;4.61;92.06;95346.84;10397947;28;1994;-84
2020/12/13 13:42:07;;;;;;;;;;;7.00;99.90;;;4.65;92.31;95340.00;10388356;28;2018;-82
2020/12/13 13:47:13;;;;;;;;;;;6.50;99.90;;;4.68;92.34;95344.81;10384859;28;1893;-84
2020/12/13 13:52:16;;;;;;;;;;;5.60;99.90;;;4.68;91.86;95344.81;10402641;28;1972;-83
2020/12/13 13:57:28;;;;;;;;;;;5.70;99.90;;;4.73;92.39;95354.72;10388605;28;1900;-83
2020/12/13 14:02:51;;;;;;;;;;;5.80;99.90;;;4.71;91.43;95357.63;10386222;28;1959;-81
2020/12/13 14:08:08;;;;;;;;;;;5.80;99.90;;;4.78;91.45;95360.94;10383776;28;1977;-81
2020/12/13 14:30:19;;;;;;;;;;;5.90;99.90;;;4.79;90.57;95383.84;10390314;28;2503;-84
2020/12/13 14:35:21;;;;;;;;;;;5.90;99.90;;;4.75;91.11;95389.88;10397808;28;2047;-82
2020/12/13 14:40:22;;;;;;;;;;;6.80;99.90;;;4.77;91.19;95393.09;10395045;28;2107;-83
2020/12/13 14:45:24;;;;;;;;;;;6.60;99.90;;;4.71;90.65;95400.25;10389982;28;2384;-82
2020/12/13 14:50:26;;;;;;;;;;;5.80;99.90;;;4.69;91.02;95402.31;10389655;28;1972;-82
2020/12/13 14:55:27;;;;;;;;;;;5.80;99.90;;;4.70;91.04;95409.25;10381182;28;1187;-81
2020/12/13 15:00:29;;;;;;;;;;;5.90;99.90;;;4.69;91.00;95412.97;10393639;28;1901;-83
2020/12/13 15:05:31;;;;;;;;;;;6.20;99.90;;;4.66;90.71;95421.47;10396058;28;1907;-84
2020/12/13 15:10:34;;;;;;;;;;;5.80;99.90;;;4.65;90.68;95424.38;10394466;28;1936;-82
2020/12/13 15:15:43;;;;;;;;;;;6.90;99.90;;;4.64;91.15;95426.22;10395567;28;1164;-84
2020/12/13 15:20:45;;;;;;;;;;;7.20;99.90;;;4.66;90.72;95426.78;10387111;28;1846;-83
2020/12/13 15:25:46;;;;;;;;;;;5.80;99.90;;;4.71;90.68;95436.69;10389131;28;1910;-81
2020/12/13 15:30:48;;;;;;;;;;;6.50;99.90;;;4.71;90.66;95431.34;10397767;28;1375;-83
2020/12/13 15:35:50;;;;;;;;;;;6.20;99.90;;;4.66;90.25;95445.44;10392342;28;1873;-83
2020/12/13 15:40:52;;;;;;;;;;;6.10;99.90;;;4.69;90.40;95444.91;10391298;28;1398;-81
2020/12/13 15:45:53;;;;;;;;;;;6.70;99.90;;;4.72;90.12;95439.13;10416670;28;1999;-83
2020/12/13 15:50:55;;;;;;;;;;;5.80;99.90;;;4.67;90.23;95447.03;10414109;28;1774;-83
2020/12/13 15:55:57;;;;;;;;;;;5.80;99.90;;;4.69;90.35;95450.25;10419289;28;1162;-83
2020/12/13 16:00:58;;;;;;;;;;;5.80;99.90;;;4.71;90.36;95447.34;10401147;28;1845;-83
2020/12/13 16:06:01;;;;;;;;;;;5.80;99.90;;;4.70;90.18;95457.19;10400657;28;1978;-82
2020/12/13 16:11:03;;;;;;;;;;;5.80;99.90;;;4.74;90.53;95458.31;10384193;28;1786;-82
2020/12/13 16:16:05;;;;;;;;;;;6.20;99.90;;;4.78;90.05;95469.31;10400844;28;1244;-82
2020/12/13 16:21:07;;;;;;;;;;;6.90;99.90;;;4.76;90.10;95466.84;10392728;28;1912;-84
2020/12/13 16:26:09;;;;;;;;;;;6.40;99.90;;;4.77;90.11;95451.69;10386615;28;1979;-84
2020/12/13 16:31:12;;;;;;;;;;;7.30;99.90;;;4.72;89.89;95459.63;10410059;28;1513;-83
2020/12/13 16:36:15;;;;;;;;;;;5.90;99.90;;;4.76;89.87;95458.88;10422542;28;1526;-82
2020/12/13 16:41:20;;;;;;;;;;;7.10;99.90;;;4.81;90.34;95466.13;10403330;28;1312;-82
2020/12/13 16:46:25;;;;;;;;;;;6.50;99.90;;;4.85;89.62;95465.41;10395515;28;1779;-83
2020/12/13 16:56:38;;;;;;;;;;;6.00;99.90;;;4.86;89.57;95472.34;10393352;28;1662;-82
2020/12/13 17:01:40;;;;;;;;;;;6.90;99.90;;;4.91;89.60;95478.81;10412688;28;1883;-83
2020/12/13 17:06:41;;;;;;;;;;;6.80;99.90;;;4.91;89.11;95473.47;10418466;28;1467;-84
2020/12/13 17:11:43;;;;;;;;;;;7.00;99.90;;;4.94;89.52;95468.44;10413570;28;1689;-83
2020/12/13 17:16:45;;;;;;;;;;;6.30;99.90;;;4.94;88.40;95479.09;10402658;28;1670;-80
2020/12/13 17:21:48;;;;;;;;;;;6.00;99.90;;;4.98;88.57;95479.44;10396175;28;2408;-82
2020/12/13 17:26:50;;;;;;;;;;;6.10;99.90;;;4.98;88.63;95479.44;10381400;28;1563;-80
2020/12/13 17:42:48;;;;;;;;;;;6.10;99.90;;;4.97;88.24;95483.16;10303913;28;1973;-81
2020/12/13 17:59:06;;;;;;;;;;;6.20;99.90;;;4.97;88.12;95475.97;10385491;28;1823;-83
2020/12/13 18:15:36;;;;;;;;;;;7.30;99.90;;;5.07;87.74;95477.94;10221978;29;1303;-83
2020/12/13 18:21:03;;;;;;;;;;;;;;;;;;;;;
2020/12/13 18:26:27;;;;;;;;;;;6.90;99.90;;;5.02;88.00;95485.88;10331746;28;1997;-81
2020/12/13 18:31:29;;;;;;;;;;;7.30;99.90;;;4.97;88.00;95486.63;10382176;28;1421;-83
2020/12/13 18:36:32;;;;;;;;;;;6.10;99.90;;;4.98;87.99;95487.41;10383512;28;1618;-82
2020/12/13 18:41:34;;;;;;;;;;;6.50;99.90;;;5.00;87.82;95493.31;10386551;28;1922;-82
2020/12/13 18:46:36;;;;;;;;;;;7.20;99.90;;;4.98;87.98;95492.75;10379246;28;1618;-83
2020/12/13 18:51:58;;;;;;;;;;;;;;;;;;;;;
2020/12/13 19:03:03;;;;;;;;;;;6.10;99.90;;;5.02;86.74;95509.84;10431681;28;1917;-83
2020/12/13 19:08:06;;;;;;;;;;;6.10;99.90;;;5.11;86.51;95508.38;10436480;28;1225;-84
2020/12/13 19:13:08;;;;;;;;;;;6.20;99.90;;;5.12;86.88;95507.34;10435430;28;1505;-82
2020/12/13 19:18:10;;;;;;;;;;;6.20;99.90;;;5.13;86.58;95511.59;10432872;28;1421;-84
2020/12/13 19:23:12;;;;;;;;;;;6.20;99.90;;;5.12;85.27;95500.13;10431125;28;2322;-82
2020/12/13 19:28:14;;;;;;;;;;;6.20;99.90;;;5.16;86.03;95513.78;10422301;28;1331;-84
2020/12/13 19:33:15;;;;;;;;;;;6.20;99.90;;;5.15;86.42;95504.16;10421943;28;1569;-83
2020/12/13 19:38:17;;;;;;;;;;;6.20;99.90;;;5.11;87.02;95503.06;10412751;28;1558;-84
2020/12/13 19:43:19;;;;;;;;;;;6.20;99.90;;;5.16;86.22;95503.13;10418187;28;1894;-84
2020/12/13 19:48:21;;;;;;;;;;;6.20;99.90;;;5.16;86.50;95505.78;10422427;28;2032;-83
2020/12/13 19:53:23;;;;;;;;;;;7.00;99.90;;;5.14;86.62;95511.34;10421238;28;1577;-84
2020/12/13 19:58:24;;;;;;;;;;;6.20;99.90;;;5.09;87.46;95513.13;10459152;28;1704;-82
2020/12/13 20:03:27;;;;;;;;;;;6.20;99.90;;;5.07;87.27;95504.59;10464794;28;1899;-84
2020/12/13 20:08:31;;;;;;;;;;;6.20;99.90;;;5.06;87.88;95502.97;10462016;28;1285;-82
2020/12/13 20:13:35;;;;;;;;;;;7.10;99.90;;;5.00;87.36;95506.63;10446765;28;1624;-84
2020/12/13 21:18:06;;;;;;;;;;;5.90;99.90;;;4.72;86.94;95500.38;10425928;28;1858;-83
2020/12/13 21:23:08;;;;;;;;;;;5.90;99.90;;;4.70;87.48;95491.78;10435087;28;2004;-83
2020/12/13 21:44:17;;;;;;;;;;;5.70;99.90;;;4.45;87.88;95494.06;10417565;28;1991;-84
2020/12/13 22:00:39;;;;;;;;;;;6.10;99.90;;;4.22;89.19;95495.03;10415748;28;2986;-84
2020/12/13 22:27:24;;;;;;;;;;;4.90;99.90;;;3.65;91.81;95501.19;10449939;28;2213;-82
2020/12/13 22:32:26;;;;;;;;;;;4.90;99.90;;;3.49;91.60;95502.72;10447179;28;2039;-80
2020/12/13 22:37:28;;;;;;;;;;;4.80;99.90;;;3.32;92.02;95503.72;10460510;28;1999;-84
2020/12/13 22:42:29;;;;;;;;;;;6.40;99.90;;;3.24;92.29;95508.34;10441610;28;2114;-82
2020/12/13 22:47:31;;;;;;;;;;;5.90;99.90;;;3.14;93.04;95513.44;10451376;28;2134;-84
2020/12/13 22:52:33;;;;;;;;;;;4.50;99.90;;;3.07;92.58;95523.38;10449295;28;1969;-83
2020/12/13 22:57:35;;;;;;;;;;;4.40;99.90;;;3.10;93.29;95512.28;10445664;28;3125;-82
2020/12/13 23:02:36;;;;;;;;;;;4.30;99.90;;;3.07;93.28;95520.72;10445985;28;1977;-81
2020/12/13 23:07:38;;;;;;;;;;;4.80;99.90;;;2.91;93.42;95530.19;10437748;28;2063;-84
2020/12/13 23:12:40;;;;;;;;;;;4.20;99.90;;;2.87;93.50;95528.22;10438534;28;2074;-79
2020/12/13 23:17:41;;;;;;;;;;;5.00;99.90;;;2.85;93.71;95524.97;10434209;28;2200;-81
2020/12/13 23:22:43;;;;;;;;;;;4.10;99.90;;;2.84;93.78;95515.41;10437656;28;2026;-83
2020/12/13 23:27:45;;;;;;;;;;;5.10;99.90;;;2.87;93.65;95510.47;10425935;28;1955;-82
2020/12/13 23:32:46;;;;;;;;;;;4.00;99.90;;;2.99;94.11;95502.50;10413126;28;2047;-82
2020/12/13 23:37:48;;;;;;;;;;;5.30;99.90;;;3.06;93.82;95500.50;10428852;28;2095;-82
2020/12/13 23:42:50;;;;;;;;;;;5.30;99.90;;;3.14;93.44;95497.50;10428746;28;1902;-83
2020/12/13 23:47:52;;;;;;;;;;;4.70;99.90;;;3.21;92.69;95489.41;10438667;28;2134;-83
2020/12/13 23:52:54;;;;;;;;;;;4.30;99.90;;;3.24;92.27;95496.88;10447608;28;2059;-81
2020/12/13 23:57:56;;;;;;;;;;;4.40;99.90;;;3.34;91.60;95496.31;10435249;28;2015;-83
